Atlantic City, NJ

11:47 PM EDT on October 22, 2014 (GMT -0400)
Brigantine DPW | Change Station
CLOSE
Current Station
Personal Weather Station
Location: Brigantine, NJ
Elevation: 16 ft
Nearby Weather Stations

Elev 16 ft 39.39 °N, 74.39 °W | Updated 12 minutes ago

Rain
Rain
53.0 °F
Feels Like 53.0 °F
N
15.0
Wind Variable Wind from NNW
Gusts 30.0 mph

Today
High -- | Low -- °F
--% Chance of Precip.
Yesterday
High -- | Low -- °F
Precip. -- in
7:14 AM 6:08 PM
Waning Crescent, 1% visible
Pressure 29.74 in
Visibility 10.0 miles
Clouds Mostly Cloudy 700 ft
Overcast 2100 ft
Dew Point 51 °F
Humidity 94%
Rainfall 0.78 in
Snow Depth Not available.
UV 0.0 out of 12
Pollen .30 out of 12
Air Quality Not available.
Flu Activity Sporadic
METAR KACY 230254Z 33012G22KT 10SM -RA BKN007 OVC021 11/10 A2974 RMK AO2 SLP071 P0003 60017 T01110100 58008

More Conditions Fewer Conditions

Pressure 29.74 in
Visibility 10.0 miles
Clouds Mostly Cloudy 700 ft
Overcast 2100 ft
Dew Point 51 °F
Humidity 94%
Rainfall 0.78 in
Snow Depth Not available.
UV 0.0 out of 12
Pollen .30 out of 12
Air Quality Not available.
Flu Activity Sporadic
METAR KACY 230254Z 33012G22KT 10SM -RA BKN007 OVC021 11/10 A2974 RMK AO2 SLP071 P0003 60017 T01110100 58008

More Conditions Fewer Conditions

10-Day Weather Forecast

Almanac

Astronomy

Oct. 22, 2014 Rise Set
Actual Time 7:14 AM EDT 6:08 PM EDT
Civil Twilight 6:47 AM EDT 6:36 PM EDT
Nautical Twilight 6:16 AM EDT 7:07 PM EDT
Astronomical Twilight 5:45 AM EDT 7:38 PM EDT
Moon 5:54 AM EDT (10/22) 5:33 PM EDT (10/22)
Length of Visible Light 11h 48m
Length of Day
10h 54m
Tomorrow will be 2m 25s shorter.
Waning Crescent, 1% of the Moon is Illuminated
Today
Waning Crescent
Oct 23
New
Oct 30
First Quarter
Nov 6
Full
Nov 14
Last Quarter

Today's Extremes

State Highs State Lows

Community

WunderPhotos

Upload Photos

1,764,130 photos uploaded!

Nearby

Snow Depth

Station Depth Elevation
No new snow has been reported.

Earthquake Activity

City Distance Mag. Time & Date
No recent earthquake activity has been reported nearby.
Minimum magnitude displayed is 2.5.

Coastal Water Temperatures

Place Temperature
No Stations Reporting

Nearby Weather Stations